sensor_id;sensor_type;location;lat;lon;timestamp;temperature;humidity
36280;DHT22;22317;47.936;12.742;2023-07-08T00:01:17;15.30;50.60
36280;DHT22;22317;47.936;12.742;2023-07-08T00:03:43;15.30;50.60
36280;DHT22;22317;47.936;12.742;2023-07-08T00:06:28;15.20;50.30
36280;DHT22;22317;47.936;12.742;2023-07-08T00:08:53;15.20;50.40
36280;DHT22;22317;47.936;12.742;2023-07-08T00:11:19;15.10;50.00
36280;DHT22;22317;47.936;12.742;2023-07-08T00:13:45;14.50;50.10
36280;DHT22;22317;47.936;12.742;2023-07-08T00:16:13;15.00;50.00
36280;DHT22;22317;47.936;12.742;2023-07-08T00:18:40;15.00;49.70
36280;DHT22;22317;47.936;12.742;2023-07-08T00:21:14;15.00;49.40
36280;DHT22;22317;47.936;12.742;2023-07-08T00:23:47;14.90;48.70
36280;DHT22;22317;47.936;12.742;2023-07-08T00:26:22;14.90;48.90
36280;DHT22;22317;47.936;12.742;2023-07-08T00:28:49;14.90;48.90
36280;DHT22;22317;47.936;12.742;2023-07-08T00:31:15;14.80;49.10
36280;DHT22;22317;47.936;12.742;2023-07-08T00:33:41;14.80;48.40
36280;DHT22;22317;47.936;12.742;2023-07-08T00:36:15;14.80;48.40
36280;DHT22;22317;47.936;12.742;2023-07-08T00:38:43;14.70;48.40
36280;DHT22;22317;47.936;12.742;2023-07-08T00:41:25;14.70;48.50
36280;DHT22;22317;47.936;12.742;2023-07-08T00:43:53;14.70;48.30
36280;DHT22;22317;47.936;12.742;2023-07-08T00:51:35;14.70;49.20
36280;DHT22;22317;47.936;12.742;2023-07-08T00:54:24;14.70;47.80
36280;DHT22;22317;47.936;12.742;2023-07-08T00:56:56;14.70;47.90
36280;DHT22;22317;47.936;12.742;2023-07-08T00:59:25;14.70;48.10
36280;DHT22;22317;47.936;12.742;2023-07-08T01:01:54;14.70;48.00
36280;DHT22;22317;47.936;12.742;2023-07-08T01:07:19;14.70;48.20
36280;DHT22;22317;47.936;12.742;2023-07-08T01:09:49;14.70;48.20
36280;DHT22;22317;47.936;12.742;2023-07-08T01:12:19;14.70;48.20
36280;DHT22;22317;47.936;12.742;2023-07-08T01:14:47;14.60;48.30
36280;DHT22;22317;47.936;12.742;2023-07-08T01:17:14;14.70;48.50
36280;DHT22;22317;47.936;12.742;2023-07-08T01:19:44;14.70;48.60
36280;DHT22;22317;47.936;12.742;2023-07-08T01:22:10;14.70;48.80
36280;DHT22;22317;47.936;12.742;2023-07-08T01:24:38;14.70;48.80
36280;DHT22;22317;47.936;12.742;2023-07-08T01:27:07;14.70;48.80
36280;DHT22;22317;47.936;12.742;2023-07-08T01:29:33;14.70;48.80
36280;DHT22;22317;47.936;12.742;2023-07-08T01:32:00;14.70;48.90
36280;DHT22;22317;47.936;12.742;2023-07-08T01:34:37;14.70;48.90
36280;DHT22;22317;47.936;12.742;2023-07-08T01:37:04;14.70;49.00
36280;DHT22;22317;47.936;12.742;2023-07-08T01:39:32;14.70;49.00
36280;DHT22;22317;47.936;12.742;2023-07-08T01:41:58;14.70;49.10
36280;DHT22;22317;47.936;12.742;2023-07-08T01:44:32;14.70;49.10
36280;DHT22;22317;47.936;12.742;2023-07-08T01:47:04;14.60;49.20
36280;DHT22;22317;47.936;12.742;2023-07-08T01:49:36;14.60;49.20
36280;DHT22;22317;47.936;12.742;2023-07-08T01:52:03;14.60;49.30
36280;DHT22;22317;47.936;12.742;2023-07-08T01:54:29;14.60;49.20
36280;DHT22;22317;47.936;12.742;2023-07-08T01:56:57;14.60;49.40
36280;DHT22;22317;47.936;12.742;2023-07-08T01:59:23;14.60;49.40
36280;DHT22;22317;47.936;12.742;2023-07-08T02:01:49;14.60;50.20
36280;DHT22;22317;47.936;12.742;2023-07-08T02:04:20;14.60;49.70
36280;DHT22;22317;47.936;12.742;2023-07-08T02:06:58;14.60;49.70
36280;DHT22;22317;47.936;12.742;2023-07-08T02:09:24;14.60;50.50
36280;DHT22;22317;47.936;12.742;2023-07-08T02:11:53;14.60;49.80
36280;DHT22;22317;47.936;12.742;2023-07-08T02:14:19;14.60;50.00
36280;DHT22;22317;47.936;12.742;2023-07-08T02:16:46;14.60;50.10
36280;DHT22;22317;47.936;12.742;2023-07-08T02:19:12;14.60;50.10
36280;DHT22;22317;47.936;12.742;2023-07-08T02:21:38;14.60;50.00
36280;DHT22;22317;47.936;12.742;2023-07-08T02:24:04;14.60;50.00
36280;DHT22;22317;47.936;12.742;2023-07-08T02:26:30;14.60;50.00
36280;DHT22;22317;47.936;12.742;2023-07-08T02:28:58;14.50;50.10
36280;DHT22;22317;47.936;12.742;2023-07-08T02:31:25;14.50;50.10
36280;DHT22;22317;47.936;12.742;2023-07-08T02:33:51;14.50;50.10
36280;DHT22;22317;47.936;12.742;2023-07-08T02:36:17;14.50;50.20
36280;DHT22;22317;47.936;12.742;2023-07-08T02:38:43;14.50;50.40
36280;DHT22;22317;47.936;12.742;2023-07-08T02:41:09;14.50;50.40
36280;DHT22;22317;47.936;12.742;2023-07-08T02:43:37;14.50;50.40
36280;DHT22;22317;47.936;12.742;2023-07-08T02:46:03;14.50;50.50
36280;DHT22;22317;47.936;12.742;2023-07-08T02:48:29;14.50;50.50
36280;DHT22;22317;47.936;12.742;2023-07-08T02:51:05;14.50;50.50
36280;DHT22;22317;47.936;12.742;2023-07-08T02:53:31;14.40;50.70
36280;DHT22;22317;47.936;12.742;2023-07-08T02:55:57;14.40;50.60
36280;DHT22;22317;47.936;12.742;2023-07-08T02:58:24;14.40;50.80
36280;DHT22;22317;47.936;12.742;2023-07-08T03:00:54;14.90;51.00
36280;DHT22;22317;47.936;12.742;2023-07-08T03:03:20;14.50;50.80
36280;DHT22;22317;47.936;12.742;2023-07-08T03:05:57;14.50;50.80
36280;DHT22;22317;47.936;12.742;2023-07-08T03:08:25;14.40;51.00
36280;DHT22;22317;47.936;12.742;2023-07-08T03:10:57;14.40;50.90
36280;DHT22;22317;47.936;12.742;2023-07-08T03:13:24;14.30;51.10
36280;DHT22;22317;47.936;12.742;2023-07-08T03:15:50;14.30;51.20
36280;DHT22;22317;47.936;12.742;2023-07-08T03:18:16;14.30;51.20
36280;DHT22;22317;47.936;12.742;2023-07-08T03:20:42;14.30;51.30
36280;DHT22;22317;47.936;12.742;2023-07-08T03:23:12;14.20;51.30
36280;DHT22;22317;47.936;12.742;2023-07-08T03:25:38;14.20;51.30
36280;DHT22;22317;47.936;12.742;2023-07-08T03:28:06;14.20;51.30
36280;DHT22;22317;47.936;12.742;2023-07-08T03:30:33;14.20;51.30
36280;DHT22;22317;47.936;12.742;2023-07-08T03:33:00;14.20;51.90
36280;DHT22;22317;47.936;12.742;2023-07-08T03:35:26;14.20;51.20
36280;DHT22;22317;47.936;12.742;2023-07-08T03:37:52;14.20;51.20
36280;DHT22;22317;47.936;12.742;2023-07-08T03:40:18;14.20;51.40
36280;DHT22;22317;47.936;12.742;2023-07-08T03:42:44;14.10;51.30
36280;DHT22;22317;47.936;12.742;2023-07-08T03:45:10;14.20;51.40
36280;DHT22;22317;47.936;12.742;2023-07-08T03:47:36;14.20;51.80
36280;DHT22;22317;47.936;12.742;2023-07-08T03:50:02;14.20;51.40
36280;DHT22;22317;47.936;12.742;2023-07-08T03:52:27;14.20;52.00
36280;DHT22;22317;47.936;12.742;2023-07-08T03:54:53;14.20;51.40
36280;DHT22;22317;47.936;12.742;2023-07-08T03:57:19;14.30;51.60
36280;DHT22;22317;47.936;12.742;2023-07-08T03:59:47;14.30;51.50
36280;DHT22;22317;47.936;12.742;2023-07-08T04:02:13;14.30;51.40
36280;DHT22;22317;47.936;12.742;2023-07-08T04:04:39;14.30;51.50
36280;DHT22;22317;47.936;12.742;2023-07-08T04:07:05;14.30;51.60
36280;DHT22;22317;47.936;12.742;2023-07-08T04:09:31;14.30;51.60
36280;DHT22;22317;47.936;12.742;2023-07-08T04:11:56;14.30;51.80
36280;DHT22;22317;47.936;12.742;2023-07-08T04:14:24;14.30;51.70
36280;DHT22;22317;47.936;12.742;2023-07-08T04:16:54;14.30;51.70
36280;DHT22;22317;47.936;12.742;2023-07-08T04:19:22;14.30;51.70
36280;DHT22;22317;47.936;12.742;2023-07-08T04:21:49;14.30;51.60
36280;DHT22;22317;47.936;12.742;2023-07-08T04:24:16;14.30;51.60
36280;DHT22;22317;47.936;12.742;2023-07-08T04:26:43;14.30;51.70
36280;DHT22;22317;47.936;12.742;2023-07-08T04:29:22;14.30;51.70
36280;DHT22;22317;47.936;12.742;2023-07-08T04:31:48;14.30;52.00
36280;DHT22;22317;47.936;12.742;2023-07-08T04:34:15;14.40;52.00
36280;DHT22;22317;47.936;12.742;2023-07-08T04:36:42;14.40;52.00
36280;DHT22;22317;47.936;12.742;2023-07-08T04:39:09;14.40;52.00
36280;DHT22;22317;47.936;12.742;2023-07-08T04:41:39;14.40;52.10
36280;DHT22;22317;47.936;12.742;2023-07-08T04:44:10;14.50;52.10
36280;DHT22;22317;47.936;12.742;2023-07-08T04:49:14;14.50;52.20
36280;DHT22;22317;47.936;12.742;2023-07-08T04:51:40;14.60;52.10
36280;DHT22;22317;47.936;12.742;2023-07-08T04:54:06;14.60;52.20
36280;DHT22;22317;47.936;12.742;2023-07-08T04:56:42;14.60;52.10
36280;DHT22;22317;47.936;12.742;2023-07-08T04:59:10;14.70;52.40
36280;DHT22;22317;47.936;12.742;2023-07-08T05:01:36;14.80;52.20
36280;DHT22;22317;47.936;12.742;2023-07-08T05:04:02;14.80;52.20
36280;DHT22;22317;47.936;12.742;2023-07-08T05:06:31;14.90;52.90
36280;DHT22;22317;47.936;12.742;2023-07-08T05:08:58;14.90;52.30
36280;DHT22;22317;47.936;12.742;2023-07-08T05:11:24;15.00;52.30
36280;DHT22;22317;47.936;12.742;2023-07-08T05:13:50;15.10;52.30
36280;DHT22;22317;47.936;12.742;2023-07-08T05:16:16;15.10;52.20
36280;DHT22;22317;47.936;12.742;2023-07-08T05:18:42;15.30;52.40
36280;DHT22;22317;47.936;12.742;2023-07-08T05:21:09;15.40;52.30
36280;DHT22;22317;47.936;12.742;2023-07-08T05:23:35;15.50;52.20
36280;DHT22;22317;47.936;12.742;2023-07-08T05:26:03;15.70;52.20
36280;DHT22;22317;47.936;12.742;2023-07-08T05:28:29;15.80;52.10
36280;DHT22;22317;47.936;12.742;2023-07-08T05:30:55;16.00;52.00
36280;DHT22;22317;47.936;12.742;2023-07-08T05:33:23;16.10;51.90
36280;DHT22;22317;47.936;12.742;2023-07-08T05:35:49;16.20;51.90
36280;DHT22;22317;47.936;12.742;2023-07-08T05:38:14;16.40;51.80
36280;DHT22;22317;47.936;12.742;2023-07-08T05:40:40;16.50;51.60
36280;DHT22;22317;47.936;12.742;2023-07-08T05:43:06;16.60;51.30
36280;DHT22;22317;47.936;12.742;2023-07-08T05:45:32;16.70;51.10
36280;DHT22;22317;47.936;12.742;2023-07-08T05:47:57;16.80;51.00
36280;DHT22;22317;47.936;12.742;2023-07-08T05:50:23;16.90;50.80
36280;DHT22;22317;47.936;12.742;2023-07-08T05:52:49;17.00;50.60
36280;DHT22;22317;47.936;12.742;2023-07-08T05:55:15;17.10;50.20
36280;DHT22;22317;47.936;12.742;2023-07-08T05:57:40;17.10;49.90
36280;DHT22;22317;47.936;12.742;2023-07-08T06:00:07;17.30;49.90
36280;DHT22;22317;47.936;12.742;2023-07-08T06:02:37;17.40;49.90
36280;DHT22;22317;47.936;12.742;2023-07-08T06:05:03;17.50;49.60
36280;DHT22;22317;47.936;12.742;2023-07-08T06:07:29;17.60;49.30
36280;DHT22;22317;47.936;12.742;2023-07-08T06:09:54;17.70;49.10
36280;DHT22;22317;47.936;12.742;2023-07-08T06:12:23;17.80;48.80
36280;DHT22;22317;47.936;12.742;2023-07-08T06:14:49;17.90;48.30
36280;DHT22;22317;47.936;12.742;2023-07-08T06:17:16;18.00;48.20
36280;DHT22;22317;47.936;12.742;2023-07-08T06:19:42;18.10;48.00
36280;DHT22;22317;47.936;12.742;2023-07-08T06:22:08;18.20;48.00
36280;DHT22;22317;47.936;12.742;2023-07-08T06:24:34;18.30;47.70
36280;DHT22;22317;47.936;12.742;2023-07-08T06:27:00;18.40;47.70
36280;DHT22;22317;47.936;12.742;2023-07-08T06:29:26;18.50;47.50
36280;DHT22;22317;47.936;12.742;2023-07-08T06:31:51;18.60;47.30
36280;DHT22;22317;47.936;12.742;2023-07-08T06:34:18;18.80;47.10
36280;DHT22;22317;47.936;12.742;2023-07-08T06:36:44;18.90;46.90
36280;DHT22;22317;47.936;12.742;2023-07-08T06:39:10;19.10;46.70
36280;DHT22;22317;47.936;12.742;2023-07-08T06:41:37;19.20;46.40
36280;DHT22;22317;47.936;12.742;2023-07-08T06:44:03;19.30;46.20
36280;DHT22;22317;47.936;12.742;2023-07-08T06:46:31;19.50;45.90
36280;DHT22;22317;47.936;12.742;2023-07-08T06:48:57;19.60;45.70
36280;DHT22;22317;47.936;12.742;2023-07-08T06:51:23;19.70;46.90
36280;DHT22;22317;47.936;12.742;2023-07-08T06:53:48;19.80;55.40
36280;DHT22;22317;47.936;12.742;2023-07-08T06:56:14;19.80;53.20
36280;DHT22;22317;47.936;12.742;2023-07-08T06:58:40;19.90;52.60
36280;DHT22;22317;47.936;12.742;2023-07-08T07:01:05;20.00;52.70
36280;DHT22;22317;47.936;12.742;2023-07-08T07:03:31;20.10;53.20
36280;DHT22;22317;47.936;12.742;2023-07-08T07:05:57;20.10;54.10
36280;DHT22;22317;47.936;12.742;2023-07-08T07:08:23;20.20;55.20
36280;DHT22;22317;47.936;12.742;2023-07-08T07:10:48;20.30;56.50
36280;DHT22;22317;47.936;12.742;2023-07-08T07:13:14;20.40;57.60
36280;DHT22;22317;47.936;12.742;2023-07-08T07:15:40;20.40;58.70
36280;DHT22;22317;47.936;12.742;2023-07-08T07:18:06;20.60;60.50
36280;DHT22;22317;47.936;12.742;2023-07-08T07:20:33;20.60;56.50
36280;DHT22;22317;47.936;12.742;2023-07-08T07:22:59;20.80;57.80
36280;DHT22;22317;47.936;12.742;2023-07-08T07:25:25;20.90;58.60
36280;DHT22;22317;47.936;12.742;2023-07-08T07:27:50;21.10;59.90
36280;DHT22;22317;47.936;12.742;2023-07-08T07:30:16;21.20;60.70
36280;DHT22;22317;47.936;12.742;2023-07-08T07:32:42;21.30;47.30
36280;DHT22;22317;47.936;12.742;2023-07-08T07:35:12;21.40;49.30
36280;DHT22;22317;47.936;12.742;2023-07-08T07:37:40;21.50;50.00
36280;DHT22;22317;47.936;12.742;2023-07-08T07:40:07;21.50;50.50
36280;DHT22;22317;47.936;12.742;2023-07-08T07:42:38;21.60;48.30
36280;DHT22;22317;47.936;12.742;2023-07-08T07:45:05;21.90;46.50
36280;DHT22;22317;47.936;12.742;2023-07-08T07:47:31;21.80;45.30
36280;DHT22;22317;47.936;12.742;2023-07-08T07:49:57;21.80;43.30
36280;DHT22;22317;47.936;12.742;2023-07-08T07:52:24;21.90;46.40
36280;DHT22;22317;47.936;12.742;2023-07-08T07:54:54;22.00;48.60
36280;DHT22;22317;47.936;12.742;2023-07-08T07:57:21;22.10;42.60
36280;DHT22;22317;47.936;12.742;2023-07-08T07:59:47;22.10;42.60
36280;DHT22;22317;47.936;12.742;2023-07-08T08:02:14;22.20;42.70
36280;DHT22;22317;47.936;12.742;2023-07-08T08:04:40;22.30;43.10
36280;DHT22;22317;47.936;12.742;2023-07-08T08:07:06;22.40;42.50
36280;DHT22;22317;47.936;12.742;2023-07-08T08:09:32;22.40;42.40
36280;DHT22;22317;47.936;12.742;2023-07-08T08:11:57;22.50;42.40
36280;DHT22;22317;47.936;12.742;2023-07-08T08:14:23;22.60;42.40
36280;DHT22;22317;47.936;12.742;2023-07-08T08:16:49;22.70;42.20
36280;DHT22;22317;47.936;12.742;2023-07-08T08:19:14;22.80;41.90
36280;DHT22;22317;47.936;12.742;2023-07-08T08:21:40;22.80;41.50
36280;DHT22;22317;47.936;12.742;2023-07-08T08:24:06;22.90;41.50
36280;DHT22;22317;47.936;12.742;2023-07-08T08:26:32;23.00;41.50
36280;DHT22;22317;47.936;12.742;2023-07-08T08:28:57;23.10;41.40
36280;DHT22;22317;47.936;12.742;2023-07-08T08:31:23;23.20;41.10
36280;DHT22;22317;47.936;12.742;2023-07-08T08:33:51;23.40;40.90
36280;DHT22;22317;47.936;12.742;2023-07-08T08:36:17;23.50;40.90
36280;DHT22;22317;47.936;12.742;2023-07-08T08:38:43;23.70;40.90
36280;DHT22;22317;47.936;12.742;2023-07-08T08:41:22;23.80;40.70
36280;DHT22;22317;47.936;12.742;2023-07-08T08:43:52;23.90;40.10
36280;DHT22;22317;47.936;12.742;2023-07-08T08:46:25;23.90;40.10
36280;DHT22;22317;47.936;12.742;2023-07-08T08:48:54;23.90;40.30
36280;DHT22;22317;47.936;12.742;2023-07-08T08:51:22;24.10;40.40
36280;DHT22;22317;47.936;12.742;2023-07-08T08:53:53;24.20;39.90
36280;DHT22;22317;47.936;12.742;2023-07-08T08:58:52;24.40;40.00
36280;DHT22;22317;47.936;12.742;2023-07-08T09:01:19;24.50;39.90
36280;DHT22;22317;47.936;12.742;2023-07-08T09:03:52;24.60;39.80
36280;DHT22;22317;47.936;12.742;2023-07-08T09:06:31;24.60;39.50
36280;DHT22;22317;47.936;12.742;2023-07-08T09:09:03;24.70;39.40
36280;DHT22;22317;47.936;12.742;2023-07-08T09:11:52;24.70;39.60
36280;DHT22;22317;47.936;12.742;2023-07-08T09:14:28;24.70;39.30
36280;DHT22;22317;47.936;12.742;2023-07-08T09:19:52;24.80;39.30
36280;DHT22;22317;47.936;12.742;2023-07-08T09:22:41;24.90;39.40
36280;DHT22;22317;47.936;12.742;2023-07-08T09:27:49;25.00;39.10
36280;DHT22;22317;47.936;12.742;2023-07-08T09:30:18;25.10;39.40
36280;DHT22;22317;47.936;12.742;2023-07-08T09:32:46;25.20;39.30
36280;DHT22;22317;47.936;12.742;2023-07-08T09:35:19;25.20;38.80
36280;DHT22;22317;47.936;12.742;2023-07-08T09:37:47;25.30;38.80
36280;DHT22;22317;47.936;12.742;2023-07-08T09:40:29;25.30;38.80
36280;DHT22;22317;47.936;12.742;2023-07-08T09:45:42;25.30;38.10
36280;DHT22;22317;47.936;12.742;2023-07-08T09:48:23;25.40;38.10
36280;DHT22;22317;47.936;12.742;2023-07-08T09:50:51;25.50;38.30
36280;DHT22;22317;47.936;12.742;2023-07-08T09:53:17;25.60;38.50
36280;DHT22;22317;47.936;12.742;2023-07-08T09:55:44;25.70;38.50
36280;DHT22;22317;47.936;12.742;2023-07-08T09:58:19;25.80;39.10
36280;DHT22;22317;47.936;12.742;2023-07-08T10:00:54;25.80;37.70
36280;DHT22;22317;47.936;12.742;2023-07-08T10:03:25;25.80;37.90
36280;DHT22;22317;47.936;12.742;2023-07-08T10:05:53;25.90;38.10
36280;DHT22;22317;47.936;12.742;2023-07-08T10:08:24;26.00;38.00
36280;DHT22;22317;47.936;12.742;2023-07-08T10:11:00;26.00;38.00
36280;DHT22;22317;47.936;12.742;2023-07-08T10:13:39;26.10;38.00
36280;DHT22;22317;47.936;12.742;2023-07-08T10:16:21;26.10;37.50
36280;DHT22;22317;47.936;12.742;2023-07-08T10:18:48;26.10;36.50
36280;DHT22;22317;47.936;12.742;2023-07-08T10:21:36;26.10;36.90
36280;DHT22;22317;47.936;12.742;2023-07-08T10:26:46;26.10;36.90
36280;DHT22;22317;47.936;12.742;2023-07-08T10:29:23;26.20;37.30
36280;DHT22;22317;47.936;12.742;2023-07-08T10:32:14;26.20;37.10
36280;DHT22;22317;47.936;12.742;2023-07-08T10:48:45;26.90;36.50
36280;DHT22;22317;47.936;12.742;2023-07-08T10:59:32;27.10;35.60
36280;DHT22;22317;47.936;12.742;2023-07-08T11:09:58;27.40;35.60
36280;DHT22;22317;47.936;12.742;2023-07-08T11:12:33;27.40;35.00
36280;DHT22;22317;47.936;12.742;2023-07-08T11:20:49;27.80;33.30
36280;DHT22;22317;47.936;12.742;2023-07-08T11:23:21;27.90;32.90
36280;DHT22;22317;47.936;12.742;2023-07-08T11:25:48;27.90;33.00
36280;DHT22;22317;47.936;12.742;2023-07-08T11:28:18;28.00;32.70
36280;DHT22;22317;47.936;12.742;2023-07-08T11:30:47;28.20;32.30
36280;DHT22;22317;47.936;12.742;2023-07-08T11:33:16;28.20;31.60
36280;DHT22;22317;47.936;12.742;2023-07-08T11:35:49;28.20;31.40
36280;DHT22;22317;47.936;12.742;2023-07-08T11:38:17;28.30;31.40
36280;DHT22;22317;47.936;12.742;2023-07-08T11:41:00;28.40;31.60
36280;DHT22;22317;47.936;12.742;2023-07-08T11:43:33;28.40;32.00
36280;DHT22;22317;47.936;12.742;2023-07-08T11:46:06;28.50;32.10
36280;DHT22;22317;47.936;12.742;2023-07-08T11:48:42;28.60;31.80
36280;DHT22;22317;47.936;12.742;2023-07-08T11:51:10;28.60;32.00
36280;DHT22;22317;47.936;12.742;2023-07-08T11:54:11;28.70;32.40
36280;DHT22;22317;47.936;12.742;2023-07-08T11:56:59;28.80;32.70
36280;DHT22;22317;47.936;12.742;2023-07-08T11:59:29;29.00;31.40
36280;DHT22;22317;47.936;12.742;2023-07-08T12:04:31;29.20;31.40
36280;DHT22;22317;47.936;12.742;2023-07-08T12:09:44;29.40;31.60
36280;DHT22;22317;47.936;12.742;2023-07-08T12:12:27;29.50;31.70
36280;DHT22;22317;47.936;12.742;2023-07-08T12:15:05;29.50;30.80
36280;DHT22;22317;47.936;12.742;2023-07-08T12:17:40;29.50;30.90
36280;DHT22;22317;47.936;12.742;2023-07-08T12:20:28;29.60;30.80
36280;DHT22;22317;47.936;12.742;2023-07-08T12:22:55;29.70;30.80
36280;DHT22;22317;47.936;12.742;2023-07-08T12:25:23;29.70;30.50
36280;DHT22;22317;47.936;12.742;2023-07-08T12:27:50;29.80;29.90
36280;DHT22;22317;47.936;12.742;2023-07-08T12:30:16;29.80;29.60
36280;DHT22;22317;47.936;12.742;2023-07-08T12:32:42;29.80;29.60
36280;DHT22;22317;47.936;12.742;2023-07-08T12:35:25;30.00;29.80
36280;DHT22;22317;47.936;12.742;2023-07-08T12:37:53;29.90;29.10
36280;DHT22;22317;47.936;12.742;2023-07-08T12:40:25;29.80;29.20
36280;DHT22;22317;47.936;12.742;2023-07-08T12:42:51;29.80;29.10
36280;DHT22;22317;47.936;12.742;2023-07-08T12:45:20;29.70;29.50
36280;DHT22;22317;47.936;12.742;2023-07-08T12:47:47;29.80;29.60
36280;DHT22;22317;47.936;12.742;2023-07-08T12:50:14;29.70;29.50
36280;DHT22;22317;47.936;12.742;2023-07-08T12:52:42;29.70;29.40
36280;DHT22;22317;47.936;12.742;2023-07-08T12:55:10;29.80;29.30
36280;DHT22;22317;47.936;12.742;2023-07-08T12:57:37;29.80;29.60
36280;DHT22;22317;47.936;12.742;2023-07-08T13:00:04;30.00;29.80
36280;DHT22;22317;47.936;12.742;2023-07-08T13:02:31;30.20;29.90
36280;DHT22;22317;47.936;12.742;2023-07-08T13:05:01;30.30;30.00
36280;DHT22;22317;47.936;12.742;2023-07-08T13:07:35;30.50;30.20
36280;DHT22;22317;47.936;12.742;2023-07-08T13:10:06;30.70;30.30
36280;DHT22;22317;47.936;12.742;2023-07-08T13:12:35;30.80;30.00
36280;DHT22;22317;47.936;12.742;2023-07-08T13:15:05;30.90;30.10
36280;DHT22;22317;47.936;12.742;2023-07-08T13:17:35;31.10;29.80
36280;DHT22;22317;47.936;12.742;2023-07-08T13:20:03;31.20;29.20
36280;DHT22;22317;47.936;12.742;2023-07-08T13:22:29;31.20;29.10
36280;DHT22;22317;47.936;12.742;2023-07-08T13:25:01;31.30;29.20
36280;DHT22;22317;47.936;12.742;2023-07-08T13:27:28;31.40;29.00
36280;DHT22;22317;47.936;12.742;2023-07-08T13:30:17;31.50;28.80
36280;DHT22;22317;47.936;12.742;2023-07-08T13:32:43;31.60;28.40
36280;DHT22;22317;47.936;12.742;2023-07-08T13:35:48;31.60;28.40
36280;DHT22;22317;47.936;12.742;2023-07-08T13:38:19;31.70;28.40
36280;DHT22;22317;47.936;12.742;2023-07-08T13:40:56;31.70;28.20
36280;DHT22;22317;47.936;12.742;2023-07-08T13:43:27;31.70;28.20
36280;DHT22;22317;47.936;12.742;2023-07-08T13:45:54;31.80;28.10
36280;DHT22;22317;47.936;12.742;2023-07-08T13:48:40;31.90;28.40
36280;DHT22;22317;47.936;12.742;2023-07-08T13:58:47;32.10;27.50
36280;DHT22;22317;47.936;12.742;2023-07-08T14:01:22;32.20;27.70
36280;DHT22;22317;47.936;12.742;2023-07-08T14:03:49;32.30;27.20
36280;DHT22;22317;47.936;12.742;2023-07-08T14:06:23;32.30;27.10
36280;DHT22;22317;47.936;12.742;2023-07-08T14:08:50;32.40;26.80
36280;DHT22;22317;47.936;12.742;2023-07-08T14:11:16;32.40;26.50
36280;DHT22;22317;47.936;12.742;2023-07-08T14:13:42;32.40;26.40
36280;DHT22;22317;47.936;12.742;2023-07-08T14:16:23;32.40;26.10
36280;DHT22;22317;47.936;12.742;2023-07-08T14:18:50;32.40;25.80
36280;DHT22;22317;47.936;12.742;2023-07-08T14:21:16;32.40;25.90
36280;DHT22;22317;47.936;12.742;2023-07-08T14:23:43;32.50;25.80
36280;DHT22;22317;47.936;12.742;2023-07-08T14:26:10;32.50;25.80
36280;DHT22;22317;47.936;12.742;2023-07-08T14:28:36;32.50;25.90
36280;DHT22;22317;47.936;12.742;2023-07-08T14:31:02;32.50;25.50
36280;DHT22;22317;47.936;12.742;2023-07-08T14:33:28;32.50;25.20
36280;DHT22;22317;47.936;12.742;2023-07-08T14:35:53;32.50;25.30
36280;DHT22;22317;47.936;12.742;2023-07-08T14:38:19;32.50;25.40
36280;DHT22;22317;47.936;12.742;2023-07-08T14:40:45;32.40;25.00
36280;DHT22;22317;47.936;12.742;2023-07-08T14:43:18;32.40;24.80
36280;DHT22;22317;47.936;12.742;2023-07-08T14:45:50;32.40;24.20
36280;DHT22;22317;47.936;12.742;2023-07-08T14:48:17;32.40;24.40
36280;DHT22;22317;47.936;12.742;2023-07-08T14:50:42;32.40;24.50
36280;DHT22;22317;47.936;12.742;2023-07-08T14:53:08;32.40;24.50
36280;DHT22;22317;47.936;12.742;2023-07-08T14:55:35;32.40;24.50
36280;DHT22;22317;47.936;12.742;2023-07-08T14:58:02;32.50;24.00
36280;DHT22;22317;47.936;12.742;2023-07-08T15:00:28;32.50;23.40
36280;DHT22;22317;47.936;12.742;2023-07-08T15:02:55;32.50;23.60
36280;DHT22;22317;47.936;12.742;2023-07-08T15:05:23;32.50;23.50
36280;DHT22;22317;47.936;12.742;2023-07-08T15:07:50;32.50;23.40
36280;DHT22;22317;47.936;12.742;2023-07-08T15:10:16;32.50;23.20
36280;DHT22;22317;47.936;12.742;2023-07-08T15:12:42;32.50;22.90
36280;DHT22;22317;47.936;12.742;2023-07-08T15:15:27;32.40;22.70
36280;DHT22;22317;47.936;12.742;2023-07-08T15:17:53;32.30;22.30
36280;DHT22;22317;47.936;12.742;2023-07-08T15:20:19;32.30;22.70
36280;DHT22;22317;47.936;12.742;2023-07-08T15:22:45;32.20;22.60
36280;DHT22;22317;47.936;12.742;2023-07-08T15:25:13;32.20;22.60
36280;DHT22;22317;47.936;12.742;2023-07-08T15:27:41;32.20;22.60
36280;DHT22;22317;47.936;12.742;2023-07-08T15:30:16;32.20;22.60
36280;DHT22;22317;47.936;12.742;2023-07-08T15:32:43;32.20;22.60
36280;DHT22;22317;47.936;12.742;2023-07-08T15:35:12;32.10;22.60
36280;DHT22;22317;47.936;12.742;2023-07-08T15:37:39;32.00;22.50
36280;DHT22;22317;47.936;12.742;2023-07-08T15:40:05;32.00;22.70
36280;DHT22;22317;47.936;12.742;2023-07-08T15:42:35;32.00;22.80
36280;DHT22;22317;47.936;12.742;2023-07-08T15:45:32;31.80;22.60
36280;DHT22;22317;47.936;12.742;2023-07-08T15:47:59;31.80;21.70
36280;DHT22;22317;47.936;12.742;2023-07-08T15:50:26;31.70;22.20
36280;DHT22;22317;47.936;12.742;2023-07-08T15:52:53;31.70;22.10
36280;DHT22;22317;47.936;12.742;2023-07-08T15:55:30;31.70;21.90
36280;DHT22;22317;47.936;12.742;2023-07-08T15:58:03;31.60;21.90
36280;DHT22;22317;47.936;12.742;2023-07-08T16:00:33;31.40;21.90
36280;DHT22;22317;47.936;12.742;2023-07-08T16:03:04;31.20;21.80
36280;DHT22;22317;47.936;12.742;2023-07-08T16:05:32;31.10;22.00
36280;DHT22;22317;47.936;12.742;2023-07-08T16:08:01;31.00;22.20
36280;DHT22;22317;47.936;12.742;2023-07-08T16:10:28;30.90;22.40
36280;DHT22;22317;47.936;12.742;2023-07-08T16:12:55;30.80;23.00
36280;DHT22;22317;47.936;12.742;2023-07-08T16:15:34;30.80;23.10
36280;DHT22;22317;47.936;12.742;2023-07-08T16:18:02;30.60;23.10
36280;DHT22;22317;47.936;12.742;2023-07-08T16:20:29;30.50;23.20
36280;DHT22;22317;47.936;12.742;2023-07-08T16:22:55;30.40;23.10
36280;DHT22;22317;47.936;12.742;2023-07-08T16:25:33;30.10;23.50
36280;DHT22;22317;47.936;12.742;2023-07-08T16:28:00;29.90;23.30
36280;DHT22;22317;47.936;12.742;2023-07-08T16:30:27;29.80;23.50
36280;DHT22;22317;47.936;12.742;2023-07-08T16:32:53;29.50;23.70
36280;DHT22;22317;47.936;12.742;2023-07-08T16:35:20;29.30;24.00
36280;DHT22;22317;47.936;12.742;2023-07-08T16:37:48;29.20;24.30
36280;DHT22;22317;47.936;12.742;2023-07-08T16:42:43;28.90;25.00